Canals, Spain
Current Conditions -  °F | °C
As of 1:30 PM on Thursday 30 Oct 2014 (Local Time) from LEVC Reporting Station
Few Clouds Few Clouds  
Wind Chill: 75°   Ceiling: Unl
Heat Index: 75°   Visibility: 6mi
Dew Point: 59°   Wind: 1mph
Humidity: 57%   Direction: NA
Pressure: 30.18"   Gusts: NA
Location:  38.96°N, 0.58°W
Report Text: LEVC 301230Z VRB01KT 9999 FEW030 24/15 Q1022 NOSIG
Loading
Personal Weather Stations






























Interactive Weather Map
Tropical Storm Tracking
New forecast layout! Learn more

10-Day Weather Forecast

Advertisements
Track Severe Weather on mobile